Time;durP1;ratioP1;P1;durP2;ratioP2;P2;SDS_P1;SDS_P2;PMS_P1;PMS_P2;Temp;Humidity;BMP_temperature;BMP_pressure;BME280_temperature;BME280_humidity;BME280_pressure;Samples;Min_cycle;Max_cycle;Signal;HPM_P1;HPM_P2
2021/07/24 00:01:40;;;;;;;6.93;4.70;;;;;;;22.91;47.59;101488.75;5053796;28;20110;-87
2021/07/24 00:04:06;;;;;;;4.93;3.85;;;;;;;22.93;47.53;101489.53;5036990;28;20090;-86
2021/07/24 00:06:31;;;;;;;4.63;3.75;;;;;;;22.93;47.45;101489.53;5053638;28;20040;-86
2021/07/24 00:09:03;;;;;;;4.85;3.58;;;;;;;22.95;47.78;101485.13;5053575;28;20032;-85
2021/07/24 00:11:28;;;;;;;4.68;3.83;;;;;;;22.97;47.88;101497.34;5022315;28;20029;-87
2021/07/24 00:13:54;;;;;;;5.22;3.72;;;;;;;23.00;47.68;101493.81;5036818;28;20048;-86
2021/07/24 00:16:19;;;;;;;6.55;4.13;;;;;;;22.99;47.64;101497.28;5020330;28;20029;-86
2021/07/24 00:18:44;;;;;;;5.90;4.05;;;;;;;22.97;47.74;101494.72;5053524;28;20040;-87
2021/07/24 00:21:10;;;;;;;4.90;3.83;;;;;;;22.97;47.85;101491.22;5053321;28;20041;-85
2021/07/24 00:23:35;;;;;;;5.22;4.10;;;;;;;22.96;47.53;101481.63;5020158;28;20032;-86
2021/07/24 00:26:01;;;;;;;5.35;4.07;;;;;;;22.93;47.89;101472.06;5053029;28;20032;-85
2021/07/24 00:28:26;;;;;;;5.93;4.40;;;;;;;22.93;47.89;101472.06;5020202;28;20051;-86
2021/07/24 00:30:52;;;;;;;5.00;3.78;;;;;;;22.94;47.69;101462.41;5054498;28;20064;-87
2021/07/24 00:33:17;;;;;;;5.53;4.50;;;;;;;22.90;47.72;101469.50;5020143;28;20057;-86
2021/07/24 00:35:43;;;;;;;5.93;3.75;;;;;;;22.90;47.82;101468.63;5019999;28;20498;-87
2021/07/24 00:38:08;;;;;;;6.97;3.60;;;;;;;22.92;48.02;101465.06;5036453;28;20499;-87
2021/07/24 00:40:41;;;;;;;4.20;3.80;;;;;;;22.94;47.69;101454.53;5036398;28;20048;-87
2021/07/24 00:43:09;;;;;;;4.30;3.70;;;;;;;22.94;47.89;101451.91;5054501;28;20021;-87
2021/07/24 00:45:43;;;;;;;4.50;3.97;;;;;;;22.94;47.51;101460.66;5037337;28;20471;-86
2021/07/24 00:48:15;;;;;;;5.18;3.92;;;;;;;22.92;47.68;101454.56;5053679;28;20387;-87
2021/07/24 00:50:45;;;;;;;6.15;4.40;;;;;;;22.91;47.62;101452.88;5053466;28;20115;-87
2021/07/24 00:53:12;;;;;;;5.07;4.07;;;;;;;22.91;47.67;101450.25;5052948;28;20025;-86
2021/07/24 00:55:38;;;;;;;4.30;3.90;;;;;;;22.90;47.74;101456.38;5053002;28;20525;-87
2021/07/24 00:58:23;;;;;;;5.38;3.90;;;;;;;22.91;47.97;101442.38;5036260;28;20033;-87
2021/07/24 01:00:48;;;;;;;5.90;4.07;;;;;;;22.90;47.71;101437.13;5053447;28;20031;-87
2021/07/24 01:03:13;;;;;;;6.18;4.00;;;;;;;22.92;47.84;101435.34;5052533;28;20036;-87
2021/07/24 01:05:40;;;;;;;5.20;4.13;;;;;;;22.90;48.11;101422.25;5052709;28;20029;-86
2021/07/24 01:08:06;;;;;;;4.97;4.35;;;;;;;22.91;47.81;101423.13;5052701;28;20483;-87
2021/07/24 01:10:31;;;;;;;5.47;4.03;;;;;;;22.87;47.80;101426.72;5053840;28;20037;-87
2021/07/24 01:12:56;;;;;;;5.50;4.30;;;;;;;22.88;47.78;101417.94;5053418;28;20029;-76
2021/07/24 01:15:22;;;;;;;4.90;3.80;;;;;;;22.89;47.72;101414.44;5036013;28;20029;-76
2021/07/24 01:17:47;;;;;;;6.15;4.40;;;;;;;22.90;47.89;101406.50;5035730;28;20467;-76
2021/07/24 01:20:13;;;;;;;5.25;4.50;;;;;;;22.85;47.93;101397.88;5019155;28;20032;-76
2021/07/24 01:22:38;;;;;;;5.10;4.22;;;;;;;22.83;48.31;101407.53;5035532;28;20040;-75
2021/07/24 01:25:04;;;;;;;6.00;4.30;;;;;;;22.82;48.11;101415.44;5035750;28;20467;-75
2021/07/24 01:27:40;;;;;;;5.97;4.57;;;;;;;22.87;48.14;101411.84;5035490;28;20035;-76
2021/07/24 01:30:06;;;;;;;7.35;4.95;;;;;;;22.86;47.85;101409.22;5051954;28;20079;-76
2021/07/24 01:32:32;;;;;;;6.78;5.30;;;;;;;22.78;48.29;101401.56;5019289;28;20124;-76
2021/07/24 01:34:57;;;;;;;7.25;5.18;;;;;;;22.74;48.16;101408.63;5018991;28;20116;-76
2021/07/24 01:37:22;;;;;;;7.78;5.20;;;;;;;22.72;48.40;101396.44;5018761;28;20108;-76
2021/07/24 01:39:48;;;;;;;7.22;5.00;;;;;;;22.68;48.47;101385.13;5035656;28;20025;-76
2021/07/24 01:42:13;;;;;;;6.88;5.50;;;;;;;22.67;48.29;101372.94;5018906;28;20542;-75
2021/07/24 01:44:39;;;;;;;9.18;6.30;;;;;;;22.65;48.51;101364.22;5018925;28;20055;-76
2021/07/24 01:47:04;;;;;;;9.30;6.15;;;;;;;22.63;48.46;101366.03;5051959;28;20029;-76
2021/07/24 01:55:13;;;;;;;7.47;5.22;;;;;;;22.65;48.30;101345.88;5052998;28;20086;-76
2021/07/24 01:57:43;;;;;;;7.38;5.55;;;;;;;22.64;48.58;101341.50;5051956;28;20415;-76
2021/07/24 02:00:10;;;;;;;8.25;5.43;;;;;;;22.64;48.39;101338.03;5051890;28;20135;-76
2021/07/24 02:02:36;;;;;;;6.85;5.40;;;;;;;22.60;48.45;101339.84;5051824;28;20029;-76
2021/07/24 02:05:10;;;;;;;8.00;6.05;;;;;;;22.56;48.44;101335.59;5035239;28;20398;-76
2021/07/24 02:07:40;;;;;;;8.60;5.20;;;;;;;22.58;48.43;101328.53;5051837;28;20032;-76
2021/07/24 02:10:06;;;;;;;6.10;5.15;;;;;;;22.60;48.64;101324.09;5051485;28;20036;-76
2021/07/24 02:12:33;;;;;;;8.38;6.03;;;;;;;22.57;48.54;101319.78;5018935;28;20391;-76
2021/07/24 02:14:59;;;;;;;6.05;5.35;;;;;;;22.53;48.42;101315.50;5054920;28;20076;-75
2021/07/24 02:17:26;;;;;;;6.65;5.28;;;;;;;22.55;48.60;101308.47;5055485;28;20488;-76
2021/07/24 02:19:52;;;;;;;8.27;5.78;;;;;;;22.54;48.70;101301.53;5038961;28;20053;-76
2021/07/24 02:22:18;;;;;;;7.13;5.28;;;;;;;22.56;48.46;101297.09;5055318;28;20029;-77
2021/07/24 02:24:43;;;;;;;7.18;4.97;;;;;;;22.57;48.54;101301.44;5038761;28;20052;-76
2021/07/24 02:27:09;;;;;;;6.25;4.70;;;;;;;22.62;48.25;101314.44;5055354;28;20033;-76
2021/07/24 02:29:34;;;;;;;7.07;5.25;;;;;;;22.63;48.22;101312.69;5056541;28;20029;-76
2021/07/24 02:31:59;;;;;;;7.38;5.05;;;;;;;22.67;48.01;101325.72;5038601;28;20398;-76
2021/07/24 02:34:25;;;;;;;5.65;4.68;;;;;;;22.67;48.26;101317.84;5038821;28;20467;-76
2021/07/24 02:36:50;;;;;;;6.35;5.05;;;;;;;22.69;48.20;101309.91;5022174;28;20036;-76
2021/07/24 02:39:16;;;;;;;6.78;5.10;;;;;;;22.66;48.19;101305.59;5021708;28;20484;-76
2021/07/24 02:41:41;;;;;;;5.60;4.88;;;;;;;22.62;48.26;101298.69;5038449;28;20029;-76
2021/07/24 02:44:06;;;;;;;5.28;4.68;;;;;;;22.62;48.25;101296.06;5022009;28;20037;-76
2021/07/24 02:46:32;;;;;;;7.95;4.82;;;;;;;22.61;48.24;101302.25;5022073;28;20025;-76
2021/07/24 02:48:57;;;;;;;8.38;5.10;;;;;;;22.59;48.27;101285.66;5038557;28;20039;-76
2021/07/24 02:51:22;;;;;;;5.93;4.95;;;;;;;22.56;48.38;101285.75;5055147;28;20364;-77
2021/07/24 02:53:48;;;;;;;5.97;4.68;;;;;;;22.58;48.35;101276.06;5038129;28;20390;-77
2021/07/24 02:56:13;;;;;;;6.65;4.95;;;;;;;22.54;48.33;101274.44;5038063;28;20032;-76
2021/07/24 02:58:39;;;;;;;7.22;5.47;;;;;;;22.56;48.35;101270.88;5022225;28;20031;-76
2021/07/24 03:01:08;;;;;;;10.18;5.25;;;;;;;22.60;48.41;101271.63;5021784;28;20052;-76
2021/07/24 03:03:35;;;;;;;8.27;5.43;;;;;;;22.59;48.47;101275.19;5054708;28;20036;-76
2021/07/24 03:06:00;;;;;;;5.72;4.45;;;;;;;22.64;48.39;101277.69;5054696;28;20029;-76
2021/07/24 03:08:25;;;;;;;5.47;4.80;;;;;;;22.64;48.14;101273.28;5021320;28;20075;-76
2021/07/24 03:10:51;;;;;;;7.45;5.00;;;;;;;22.67;47.85;101272.34;5037758;28;20029;-75
2021/07/24 03:13:16;;;;;;;6.13;4.93;;;;;;;22.70;47.81;101282.78;5021584;28;20028;-75
2021/07/24 03:15:41;;;;;;;7.05;5.15;;;;;;;22.70;47.87;101273.16;5055784;28;20079;-75
2021/07/24 03:18:07;;;;;;;6.63;4.90;;;;;;;22.68;47.97;101279.34;5054448;28;20031;-76
2021/07/24 03:20:32;;;;;;;10.90;5.97;;;;;;;22.65;48.00;101268.94;5021222;28;20025;-76
2021/07/24 03:22:59;;;;;;;5.85;5.25;;;;;;;22.59;48.21;101252.41;5037676;28;20068;-76
2021/07/24 03:25:26;;;;;;;6.22;5.30;;;;;;;22.55;48.34;101245.53;5020996;28;20029;-76
2021/07/24 03:27:52;;;;;;;10.50;5.68;;;;;;;22.54;48.31;101246.44;5037817;28;20057;-76
2021/07/24 03:30:18;;;;;;;7.43;5.47;;;;;;;22.59;48.16;101244.56;5021074;28;20064;-76
2021/07/24 03:32:44;;;;;;;7.65;6.13;;;;;;;22.56;48.42;101249.03;5054318;28;20044;-76
2021/07/24 03:35:09;;;;;;;6.13;5.53;;;;;;;22.55;48.26;101242.91;5021265;28;20033;-77
2021/07/24 03:37:35;;;;;;;7.13;6.30;;;;;;;22.54;48.57;101240.34;5053613;28;20024;-77
2021/07/24 03:40:00;;;;;;;8.38;6.43;;;;;;;22.51;48.72;101248.25;5054192;28;20035;-76
2021/07/24 03:42:26;;;;;;;7.78;6.00;;;;;;;22.55;48.22;101257.78;5037341;28;20383;-76
2021/07/24 03:44:51;;;;;;;6.82;5.75;;;;;;;22.54;48.50;101256.94;5037456;28;20171;-75
2021/07/24 03:47:17;;;;;;;7.55;5.75;;;;;;;22.56;48.46;101259.53;5037380;28;20385;-76
2021/07/24 03:49:42;;;;;;;7.35;5.68;;;;;;;22.56;48.44;101251.66;5037084;28;20033;-75
2021/07/24 03:52:07;;;;;;;7.35;6.50;;;;;;;22.51;48.48;101250.88;5070367;28;20029;-75
2021/07/24 03:54:33;;;;;;;8.75;6.65;;;;;;;22.50;48.41;101243.94;5037338;28;20450;-76
2021/07/24 03:56:58;;;;;;;6.97;6.00;;;;;;;22.47;48.70;101234.38;5036990;28;20029;-76
2021/07/24 03:59:23;;;;;;;8.48;6.63;;;;;;;22.44;48.44;101225.72;5020526;28;20422;-76
2021/07/24 04:01:51;;;;;;;8.48;6.38;;;;;;;22.47;48.71;101231.75;5037017;28;20060;-76
2021/07/24 04:04:17;;;;;;;7.75;6.22;;;;;;;22.43;48.72;101223.97;5037213;28;20075;-76
2021/07/24 04:06:43;;;;;;;7.95;6.63;;;;;;;22.34;49.08;101202.34;5054820;28;20468;-76
2021/07/24 04:09:09;;;;;;;8.45;6.70;;;;;;;22.31;49.20;101199.78;5036701;28;20479;-76
2021/07/24 04:11:35;;;;;;;7.85;6.47;;;;;;;22.27;49.29;101189.41;5036834;28;20078;-75
2021/07/24 04:14:03;;;;;;;10.20;7.22;;;;;;;22.19;49.31;101195.66;5053367;28;20055;-76
2021/07/24 04:16:30;;;;;;;9.48;6.93;;;;;;;22.32;49.10;101192.75;5053472;28;20068;-87
2021/07/24 04:18:56;;;;;;;7.93;6.22;;;;;;;22.35;49.29;101188.31;5037022;28;20099;-87
2021/07/24 04:21:21;;;;;;;11.82;6.90;;;;;;;22.38;48.98;101171.63;5037089;28;20082;-86
2021/07/24 04:23:46;;;;;;;9.23;7.22;;;;;;;22.38;49.20;101177.78;5053842;28;20033;-87
2021/07/24 04:26:12;;;;;;;8.32;6.25;;;;;;;22.33;49.18;101181.38;5055630;28;20033;-87
2021/07/24 04:28:37;;;;;;;7.30;6.13;;;;;;;22.37;49.22;101183.03;5057239;28;20033;-87
2021/07/24 04:31:03;;;;;;;7.95;6.15;;;;;;;22.38;48.96;101195.25;5039869;28;20051;-87
2021/07/24 04:33:29;;;;;;;8.30;6.10;;;;;;;22.46;48.91;101197.69;5026371;28;20049;-88
2021/07/24 04:35:55;;;;;;;8.70;6.30;;;;;;;22.45;48.72;101202.09;5060712;28;20094;-77
2021/07/24 04:38:20;;;;;;;11.63;6.25;;;;;;;22.52;48.86;101203.66;5056618;28;20128;-77
2021/07/24 04:40:46;;;;;;;7.07;5.60;;;;;;;22.64;48.43;101196.38;5039147;28;20087;-77
2021/07/24 04:43:13;;;;;;;6.53;5.82;;;;;;;22.68;48.32;101201.50;5052977;28;20033;-75
2021/07/24 04:45:47;;;;;;;7.72;5.72;;;;;;;22.74;47.97;101201.34;5052877;28;20040;-77
2021/07/24 04:48:13;;;;;;;8.50;5.63;;;;;;;22.82;48.03;101203.78;5036416;28;20078;-77
2021/07/24 04:50:44;;;;;;;8.18;5.93;;;;;;;22.79;48.11;101219.59;5053888;28;20024;-77
2021/07/24 04:53:12;;;;;;;8.18;5.50;;;;;;;22.82;47.91;101224.78;5052764;28;20052;-77
2021/07/24 04:55:38;;;;;;;6.65;5.55;;;;;;;22.88;48.08;101223.75;5052529;28;20025;-77
2021/07/24 04:58:08;;;;;;;6.22;4.90;;;;;;;22.92;48.07;101220.16;5052543;28;20183;-77
2021/07/24 05:00:52;;;;;;;8.00;5.45;;;;;;;22.94;47.82;101219.19;5036190;28;20097;-77
2021/07/24 05:03:18;;;;;;;6.90;5.72;;;;;;;22.94;47.96;101220.97;5052615;28;20387;-76
2021/07/24 05:05:43;;;;;;;7.43;5.30;;;;;;;23.04;47.70;101219.88;5052418;28;20029;-77
2021/07/24 05:08:10;;;;;;;6.40;5.00;;;;;;;23.04;47.55;101219.88;5054004;28;20028;-77
2021/07/24 05:10:36;;;;;;;8.02;5.57;;;;;;;22.98;47.88;101212.13;5052381;28;20029;-88
2021/07/24 05:13:02;;;;;;;9.32;5.72;;;;;;;22.96;47.83;101212.16;5052679;28;20506;-85
2021/07/24 05:15:27;;;;;;;5.90;5.30;;;;;;;22.97;47.71;101189.38;5036015;28;20032;-87
2021/07/24 05:17:53;;;;;;;6.65;5.20;;;;;;;23.04;47.97;101190.09;5052707;28;20107;-85
2021/07/24 05:20:18;;;;;;;5.97;4.68;;;;;;;23.14;47.46;101183.72;5053798;28;20040;-85
2021/07/24 05:22:44;;;;;;;5.63;4.68;;;;;;;23.19;47.60;101187.06;5035735;28;20032;-85
2021/07/24 05:25:11;;;;;;;5.50;4.45;;;;;;;23.28;47.43;101196.44;5053564;28;20473;-85
2021/07/24 05:27:37;;;;;;;5.55;4.45;;;;;;;23.30;47.30;101210.41;5053390;28;20068;-84
2021/07/24 05:30:03;;;;;;;5.70;4.78;;;;;;;23.31;47.24;101212.13;5052276;28;20049;-83
2021/07/24 05:32:28;;;;;;;5.63;4.68;;;;;;;23.38;47.02;101205.81;5053380;28;20029;-84
2021/07/24 05:34:54;;;;;;;5.00;4.32;;;;;;;23.49;46.72;101192.38;5035670;28;20035;-85
2021/07/24 05:37:19;;;;;;;4.82;4.30;;;;;;;23.55;46.36;101184.31;5052133;28;20035;-84
2021/07/24 05:39:45;;;;;;;4.47;4.07;;;;;;;23.72;46.37;101174.16;5052049;28;20045;-85
2021/07/24 05:42:10;;;;;;;5.85;4.75;;;;;;;23.67;45.96;101175.19;5035471;28;20391;-82
2021/07/24 05:44:36;;;;;;;8.15;5.05;;;;;;;23.65;46.58;101170.00;5052443;28;20468;-83
2021/07/24 05:47:02;;;;;;;5.30;4.80;;;;;;;23.62;46.44;101164.84;5052186;28;20075;-80
2021/07/24 05:49:27;;;;;;;5.93;4.63;;;;;;;23.60;46.34;101151.78;5039615;28;20025;-82
2021/07/24 05:51:53;;;;;;;6.40;5.32;;;;;;;23.66;46.23;101152.47;5056199;28;20541;-78
2021/07/24 05:54:22;;;;;;;9.27;6.97;;;;;;;23.60;46.37;101154.41;5040081;28;20068;-82
2021/07/24 05:56:47;;;;;;;7.28;5.90;;;;;;;24.38;44.45;101158.13;5039826;28;20112;-83
2021/07/24 05:59:12;;;;;;;8.23;6.57;;;;;;;24.42;44.48;101157.09;5039248;28;20124;-82
2021/07/24 06:01:38;;;;;;;7.55;6.40;;;;;;;24.51;43.95;101161.25;5055825;28;20031;-80
2021/07/24 06:04:04;;;;;;;8.10;5.85;;;;;;;24.02;45.28;101158.41;5055719;28;20078;-82
2021/07/24 06:06:29;;;;;;;7.32;6.18;;;;;;;24.03;44.99;101153.09;5022846;28;20092;-83
2021/07/24 06:08:54;;;;;;;7.22;6.00;;;;;;;24.19;44.65;101163.09;5039020;28;20021;-81
2021/07/24 06:11:20;;;;;;;10.20;8.45;;;;;;;23.85;45.46;101151.03;5057255;28;20037;-87
2021/07/24 06:13:45;;;;;;;12.30;8.45;;;;;;;23.72;45.51;101137.38;5056055;28;20041;-87
2021/07/24 06:16:11;;;;;;;12.82;7.82;;;;;;;23.84;45.45;101130.06;5039185;28;20183;-88
2021/07/24 06:18:37;;;;;;;10.70;8.07;;;;;;;24.51;44.02;101137.56;5039218;28;20364;-87
2021/07/24 06:21:02;;;;;;;13.32;8.73;;;;;;;24.77;43.34;101141.94;5055834;28;20024;-82
2021/07/24 06:23:28;;;;;;;15.55;9.07;;;;;;;24.96;42.56;101137.72;5039148;28;20439;-85
2021/07/24 06:25:53;;;;;;;12.07;8.60;;;;;;;24.67;43.26;101146.63;5039259;28;20064;-85
2021/07/24 06:28:21;;;;;;;14.05;8.18;;;;;;;24.21;44.76;101137.63;5039502;28;20033;-84
2021/07/24 06:30:46;;;;;;;15.27;8.43;;;;;;;23.98;45.29;101133.13;5055964;28;20115;-86
2021/07/24 06:33:12;;;;;;;13.00;8.52;;;;;;;23.67;46.20;101136.69;5023526;28;20115;-83
2021/07/24 06:35:37;;;;;;;9.80;8.35;;;;;;;23.53;46.40;101144.94;5056309;28;20040;-84
2021/07/24 06:38:03;;;;;;;12.38;8.57;;;;;;;23.48;46.41;101135.50;5055791;28;20056;-88
2021/07/24 06:40:28;;;;;;;14.63;7.78;;;;;;;23.48;46.61;101130.25;5057751;28;20036;-87
2021/07/24 06:42:54;;;;;;;12.05;8.52;;;;;;;23.41;46.44;101127.81;5022998;28;20068;-90
2021/07/24 06:45:20;;;;;;;11.38;8.32;;;;;;;23.46;46.41;101145.19;5038901;28;20041;-84
2021/07/24 06:47:45;;;;;;;13.93;7.97;;;;;;;23.50;46.75;101147.69;5055381;28;20032;-87
2021/07/24 06:50:11;;;;;;;9.18;7.43;;;;;;;23.55;46.34;101147.53;5039222;28;20033;-88
2021/07/24 06:52:37;;;;;;;14.95;8.02;;;;;;;23.54;46.38;101145.81;5023035;28;20115;-89
2021/07/24 06:55:04;;;;;;;9.30;7.63;;;;;;;23.58;46.31;101153.56;5022745;28;20096;-91
2021/07/24 06:57:30;;;;;;;11.48;7.30;;;;;;;23.57;46.39;101138.69;5039763;28;20033;-91
2021/07/24 06:59:55;;;;;;;10.50;7.15;;;;;;;23.49;46.47;101134.59;5038168;28;20036;-91
2021/07/24 07:02:20;;;;;;;13.38;7.63;;;;;;;23.50;46.39;101144.19;5022559;28;20036;-90
2021/07/24 07:04:46;;;;;;;9.85;6.63;;;;;;;23.50;46.54;101147.69;5056006;28;20060;-90
2021/07/24 07:07:11;;;;;;;10.15;6.85;;;;;;;23.60;46.21;101141.25;5039086;28;20083;-91
2021/07/24 07:09:36;;;;;;;9.30;6.93;;;;;;;23.61;46.09;101142.13;5021542;28;20029;-87
2021/07/24 07:12:02;;;;;;;7.90;6.38;;;;;;;23.57;46.38;101140.47;5054929;28;20021;-85
2021/07/24 07:14:28;;;;;;;14.10;6.68;;;;;;;23.54;46.04;101135.28;5027530;28;20075;-87
2021/07/24 07:16:55;;;;;;;11.73;7.40;;;;;;;23.47;46.69;101132.00;5021786;28;20128;-91
2021/07/24 07:19:21;;;;;;;11.65;6.68;;;;;;;23.43;46.49;101122.50;5038210;28;20118;-88
2021/07/24 07:21:47;;;;;;;11.10;7.10;;;;;;;23.38;46.37;101130.50;5054561;28;20032;-86
2021/07/24 07:24:13;;;;;;;9.25;7.07;;;;;;;23.31;46.93;101122.88;5038025;28;20029;-86
2021/07/24 07:26:40;;;;;;;10.45;6.88;;;;;;;23.28;46.40;101115.94;5054535;28;20029;-86
2021/07/24 07:29:06;;;;;;;10.50;7.65;;;;;;;23.20;46.92;101105.66;5054397;28;20056;-87
2021/07/24 07:31:33;;;;;;;13.05;7.30;;;;;;;23.23;46.60;101101.22;5037922;28;20471;-87
2021/07/24 07:33:58;;;;;;;9.32;7.05;;;;;;;23.24;46.64;101100.31;5038116;28;20086;-88
2021/07/24 07:36:24;;;;;;;10.32;7.72;;;;;;;23.25;46.54;101104.66;5054434;28;20036;-88
2021/07/24 07:38:50;;;;;;;13.18;7.75;;;;;;;23.27;46.93;101108.09;5037926;28;20049;-87
2021/07/24 07:41:17;;;;;;;13.05;7.97;;;;;;;23.18;47.13;101107.44;5039397;28;20483;-88
2021/07/24 07:43:43;;;;;;;10.57;7.70;;;;;;;23.20;46.90;101099.53;5056371;28;20028;-86
2021/07/24 07:46:08;;;;;;;9.18;8.00;;;;;;;23.18;46.75;101102.19;5055927;28;20028;-86
2021/07/24 07:48:35;;;;;;;11.90;8.45;;;;;;;23.11;46.93;101089.31;5038422;28;20025;-87
2021/07/24 07:51:02;;;;;;;11.73;8.15;;;;;;;23.09;47.14;101091.97;5053897;28;20024;-86
2021/07/24 07:53:27;;;;;;;11.85;9.02;;;;;;;23.11;47.05;101094.56;5055042;28;20553;-88
2021/07/24 07:55:52;;;;;;;12.02;8.50;;;;;;;23.16;46.88;101101.38;5034125;28;20028;-87
2021/07/24 07:58:18;;;;;;;10.60;9.10;;;;;;;23.18;47.22;101093.47;5058016;28;20130;-88
2021/07/24 08:00:43;;;;;;;11.20;8.30;;;;;;;23.24;47.06;101079.31;5054318;28;20371;-87
2021/07/24 08:03:09;;;;;;;11.02;7.95;;;;;;;23.24;47.04;101080.16;5038768;28;20040;-86
2021/07/24 08:05:34;;;;;;;14.20;9.77;;;;;;;23.12;47.24;101083.13;5037420;28;20025;-86
2021/07/24 08:08:00;;;;;;;12.95;9.27;;;;;;;23.06;47.16;101078.06;5054081;28;20033;-86
2021/07/24 08:10:25;;;;;;;14.35;9.55;;;;;;;23.22;46.82;101079.34;5021465;28;20035;-88
2021/07/24 08:12:52;;;;;;;11.20;8.52;;;;;;;23.32;46.84;101078.19;5055078;28;20040;-89
2021/07/24 08:15:18;;;;;;;13.20;9.10;;;;;;;23.33;46.60;101076.41;5038298;28;20460;-87
2021/07/24 08:17:44;;;;;;;16.77;8.77;;;;;;;23.36;46.70;101078.94;5037384;28;20145;-86
2021/07/24 08:20:10;;;;;;;13.48;8.63;;;;;;;23.41;46.50;101080.53;5053804;28;20379;-86
2021/07/24 08:22:36;;;;;;;20.48;7.93;;;;;;;23.49;46.51;101077.66;5020432;28;20463;-86
2021/07/24 08:25:01;;;;;;;26.83;8.30;;;;;;;23.58;46.47;101071.25;5054610;28;20040;-85
2021/07/24 08:27:27;;;;;;;30.88;8.70;;;;;;;23.58;46.26;101079.13;5054227;28;20029;-85
2021/07/24 08:29:52;;;;;;;28.88;7.93;;;;;;;23.62;46.43;101079.00;5020379;28;20124;-86
2021/07/24 08:32:18;;;;;;;22.67;7.65;;;;;;;23.70;46.32;101080.53;5037920;28;20032;-86
2021/07/24 08:34:47;;;;;;;18.88;7.40;;;;;;;23.62;46.36;101081.63;5021960;28;20035;-81
2021/07/24 08:37:13;;;;;;;23.50;7.60;;;;;;;23.53;46.93;101079.28;5052918;28;20079;-83
2021/07/24 08:39:38;;;;;;;14.00;7.53;;;;;;;23.53;47.52;101084.53;5035926;28;20064;-83
2021/07/24 08:42:04;;;;;;;18.35;7.43;;;;;;;23.48;47.29;101089.06;5052927;28;20047;-81
2021/07/24 08:44:29;;;;;;;14.63;7.32;;;;;;;23.54;47.19;101088.91;5036127;28;20075;-81
2021/07/24 08:46:55;;;;;;;12.05;7.20;;;;;;;23.51;47.15;101085.50;5052846;28;20429;-83
2021/07/24 08:49:20;;;;;;;10.50;7.10;;;;;;;23.42;47.70;101082.22;5036085;28;20029;-81
2021/07/24 08:51:48;;;;;;;10.50;7.40;;;;;;;23.48;47.51;101075.09;5035967;28;20037;-83
2021/07/24 08:54:13;;;;;;;10.43;7.53;;;;;;;23.43;47.86;101075.25;5052802;28;20071;-83
2021/07/24 08:56:45;;;;;;;8.77;7.63;;;;;;;23.31;52.59;101070.34;5052543;28;20048;-84
2021/07/24 08:59:14;;;;;;;13.70;9.15;;;;;;;22.72;60.90;101071.13;5052607;28;20055;-86
2021/07/24 09:01:41;;;;;;;12.25;9.93;;;;;;;22.38;61.03;101062.41;5053894;28;20052;-79
2021/07/24 09:04:07;;;;;;;15.48;10.60;;;;;;;22.20;65.46;101065.44;5036043;28;20037;-80
2021/07/24 09:06:32;;;;;;;11.15;9.98;;;;;;;22.05;60.31;101068.44;5019512;28;20124;-79
2021/07/24 09:08:59;;;;;;;12.27;9.30;;;;;;;21.98;62.91;101054.63;5052466;28;20108;-79
2021/07/24 09:11:24;;;;;;;13.43;9.43;;;;;;;21.94;65.14;101058.22;5053006;28;20108;-87
2021/07/24 09:13:50;;;;;;;12.57;9.98;;;;;;;21.91;63.46;101060.94;5035833;28;20571;-83
2021/07/24 09:16:15;;;;;;;15.93;10.40;;;;;;;21.84;66.10;101062.84;5036360;28;20037;-80
2021/07/24 09:18:41;;;;;;;11.57;9.35;;;;;;;21.83;62.65;101058.47;5052474;28;20028;-82
2021/07/24 09:21:07;;;;;;;12.93;9.55;;;;;;;21.84;62.80;101065.47;5053920;28;20430;-79
2021/07/24 09:23:39;;;;;;;16.33;10.88;;;;;;;21.79;62.39;101056.84;5051776;28;20029;-80
2021/07/24 09:26:06;;;;;;;16.08;10.48;;;;;;;21.83;64.74;101070.72;5052156;28;20116;-80
2021/07/24 09:28:33;;;;;;;15.40;11.60;;;;;;;21.81;63.28;101062.03;5052188;28;20044;-79
2021/07/24 09:31:18;;;;;;;17.98;10.02;;;;;;;21.76;64.54;101055.16;5035333;28;20063;-80
2021/07/24 09:33:50;;;;;;;15.48;10.25;;;;;;;21.79;64.37;101056.84;5052582;28;20032;-83
2021/07/24 09:36:37;;;;;;;14.37;9.53;;;;;;;21.93;63.29;101060.00;5035575;28;20391;-79
2021/07/24 09:39:14;;;;;;;13.48;9.70;;;;;;;22.03;63.96;101054.53;5035116;28;20453;-79
2021/07/24 09:41:44;;;;;;;14.48;9.85;;;;;;;21.95;63.98;101052.97;5052598;28;20029;-92
2021/07/24 09:44:10;;;;;;;12.75;9.02;;;;;;;21.85;63.91;101061.06;5036119;28;20025;-87
2021/07/24 09:46:36;;;;;;;15.60;10.55;;;;;;;21.86;63.59;101061.03;5052094;28;20028;-80
2021/07/24 09:49:15;;;;;;;14.25;9.55;;;;;;;21.87;61.64;101051.44;5035537;28;20028;-80
2021/07/24 09:51:48;;;;;;;12.20;9.60;;;;;;;21.99;59.98;101051.09;5052049;28;20024;-78
2021/07/24 09:54:27;;;;;;;14.15;9.93;;;;;;;22.02;59.61;101042.34;5036060;28;20402;-78
2021/07/24 09:56:54;;;;;;;11.95;9.07;;;;;;;22.09;59.59;101039.50;5054159;28;20114;-78
2021/07/24 09:59:24;;;;;;;12.57;9.13;;;;;;;22.13;58.79;101049.00;5035846;28;20021;-79
2021/07/24 10:01:56;;;;;;;14.07;9.88;;;;;;;22.13;59.59;101038.53;5036134;28;20025;-79
2021/07/24 10:04:30;;;;;;;12.77;8.63;;;;;;;22.16;57.90;101037.59;5052631;28;20033;-79
2021/07/24 10:06:58;;;;;;;11.65;8.70;;;;;;;22.25;58.12;101054.88;5036614;28;20040;-80
2021/07/24 10:09:28;;;;;;;14.30;9.65;;;;;;;22.19;59.10;101048.00;5052337;28;20055;-77
2021/07/24 10:11:57;;;;;;;18.75;12.45;;;;;;;22.13;60.47;101045.53;5035316;28;20055;-76
2021/07/24 10:14:24;;;;;;;16.60;13.02;;;;;;;22.11;60.82;101058.66;5051899;28;20021;-78
2021/07/24 10:16:51;;;;;;;20.15;17.13;;;;;;;22.12;60.30;101056.91;5052566;28;20043;-79
2021/07/24 10:19:18;;;;;;;22.85;18.13;;;;;;;22.08;61.26;101057.88;5052439;28;20122;-78
2021/07/24 10:21:45;;;;;;;32.58;21.10;;;;;;;22.03;61.74;101054.53;5052308;28;20028;-79
2021/07/24 10:24:11;;;;;;;28.20;20.25;;;;;;;22.09;61.23;101049.13;5052896;28;20025;-76
2021/07/24 10:26:38;;;;;;;24.17;20.88;;;;;;;22.22;63.92;101050.56;5051676;28;20596;-78
2021/07/24 10:29:07;;;;;;;29.83;23.20;;;;;;;22.21;61.40;101050.56;5051645;28;20494;-77
2021/07/24 10:31:40;;;;;;;29.38;24.27;;;;;;;22.08;62.33;101040.41;5051521;28;20071;-76
2021/07/24 10:34:08;;;;;;;34.28;25.15;;;;;;;22.08;63.35;101034.28;5051768;28;20020;-76
2021/07/24 10:36:34;;;;;;;34.25;25.48;;;;;;;22.08;65.52;101048.28;5055518;28;20028;-76
2021/07/24 10:39:02;;;;;;;32.83;25.83;;;;;;;22.11;65.51;101050.81;5055024;28;20073;-76
2021/07/24 10:41:31;;;;;;;31.25;23.55;;;;;;;22.13;64.68;101058.66;5055637;28;20414;-76
2021/07/24 10:44:03;;;;;;;28.95;24.48;;;;;;;22.12;64.29;101051.66;5057270;28;20024;-76
2021/07/24 10:46:41;;;;;;;26.85;22.95;;;;;;;22.12;65.30;101052.56;5061464;28;20029;-76
2021/07/24 10:49:10;;;;;;;30.23;23.05;;;;;;;22.10;65.50;101049.09;5070558;28;20020;-77
2021/07/24 10:52:12;;;;;;;28.13;21.98;;;;;;;22.11;65.24;101040.31;5041320;28;20036;-75
2021/07/24 10:55:07;;;;;;;25.23;20.60;;;;;;;22.08;64.67;101044.78;5038538;28;20064;-75
2021/07/24 10:57:47;;;;;;;24.30;20.45;;;;;;;22.07;64.20;101032.59;5055726;28;20049;-75
2021/07/24 11:00:18;;;;;;;25.42;20.27;;;;;;;22.05;65.84;101024.75;5054747;28;20475;-75
2021/07/24 11:02:48;;;;;;;23.65;19.75;;;;;;;22.02;66.17;101022.22;5056105;28;20453;-75
2021/07/24 11:05:28;;;;;;;25.10;18.83;;;;;;;22.05;63.79;101029.13;5054801;28;20037;-75
2021/07/24 11:07:55;;;;;;;23.83;18.48;;;;;;;22.02;64.30;101021.38;5038315;28;20078;-77
2021/07/24 11:10:21;;;;;;;24.27;18.63;;;;;;;22.03;64.74;101023.94;5021453;28;20071;-77
2021/07/24 11:12:46;;;;;;;20.63;17.60;;;;;;;22.07;64.14;101020.34;5038281;28;20431;-76
2021/07/24 11:15:38;;;;;;;24.92;18.92;;;;;;;21.94;64.86;101011.91;5054775;28;20033;-76
2021/07/24 11:18:23;;;;;;;22.13;19.15;;;;;;;21.80;65.09;101016.66;5048764;28;20039;-76
2021/07/24 11:20:50;;;;;;;21.80;18.80;;;;;;;21.69;65.28;101009.06;5055578;28;20023;-77
2021/07/24 11:23:38;;;;;;;22.33;18.45;;;;;;;21.76;65.73;101009.75;5054370;28;20402;-77
2021/07/24 11:26:03;;;;;;;25.27;18.80;;;;;;;21.72;65.69;101008.97;5054059;28;20040;-76